Terminal Aerodrome Forecast
Issued by NWS

Home | Current Version | Previous Version | Text Only | Print | Product List | Glossary On
Versions: 1 2 3 4 5 6 7 8 9 10 11 12 13 14 15 16 17
000
FTUS41 KPBZ 250500
TAFLBE
TAF
KLBE 250520Z 2506/2606 VRB03KT P6SM SCT250
     FM251800 22015G30KT P6SM BKN040
     FM252300 24012G30KT P6SM BKN015
     FM260200 28012KT P6SM SKC
      AMD NOT SKED=

USA.gov is the U.S. government's official web portal to all federal, state and local government web resources and services.